sensor_id;sensor_type;location;lat;lon;timestamp;P1;durP1;ratioP1;P2;durP2;ratioP2
56991;SDS011;42885;49.754;18.636;2023-04-24T00:00:32;8.93;;;3.80;;
56991;SDS011;42885;49.754;18.636;2023-04-24T00:03:23;6.87;;;3.87;;
56991;SDS011;42885;49.754;18.636;2023-04-24T00:06:13;6.53;;;4.10;;
56991;SDS011;42885;49.754;18.636;2023-04-24T00:09:04;5.67;;;3.90;;
56991;SDS011;42885;49.754;18.636;2023-04-24T00:11:52;7.22;;;4.12;;
56991;SDS011;42885;49.754;18.636;2023-04-24T00:14:43;5.17;;;4.17;;
56991;SDS011;42885;49.754;18.636;2023-04-24T00:17:31;4.70;;;3.70;;
56991;SDS011;42885;49.754;18.636;2023-04-24T00:20:20;7.03;;;3.98;;
56991;SDS011;42885;49.754;18.636;2023-04-24T00:23:09;7.33;;;4.12;;
56991;SDS011;42885;49.754;18.636;2023-04-24T00:25:59;13.70;;;4.22;;
56991;SDS011;42885;49.754;18.636;2023-04-24T00:28:48;6.27;;;3.90;;
56991;SDS011;42885;49.754;18.636;2023-04-24T00:31:37;8.65;;;4.17;;
56991;SDS011;42885;49.754;18.636;2023-04-24T00:34:27;6.33;;;3.80;;
56991;SDS011;42885;49.754;18.636;2023-04-24T00:37:15;7.55;;;4.03;;
56991;SDS011;42885;49.754;18.636;2023-04-24T00:40:04;6.12;;;3.90;;
56991;SDS011;42885;49.754;18.636;2023-04-24T00:42:54;4.75;;;4.20;;
56991;SDS011;42885;49.754;18.636;2023-04-24T00:45:43;7.37;;;4.17;;
56991;SDS011;42885;49.754;18.636;2023-04-24T00:48:32;5.53;;;3.77;;
56991;SDS011;42885;49.754;18.636;2023-04-24T00:51:21;5.45;;;4.20;;
56991;SDS011;42885;49.754;18.636;2023-04-24T00:54:11;6.13;;;4.13;;
56991;SDS011;42885;49.754;18.636;2023-04-24T00:57:02;6.62;;;3.98;;
56991;SDS011;42885;49.754;18.636;2023-04-24T00:59:52;7.40;;;4.00;;
56991;SDS011;42885;49.754;18.636;2023-04-24T01:02:43;6.28;;;3.83;;
56991;SDS011;42885;49.754;18.636;2023-04-24T01:05:34;6.42;;;4.12;;
56991;SDS011;42885;49.754;18.636;2023-04-24T01:08:23;5.75;;;3.83;;
56991;SDS011;42885;49.754;18.636;2023-04-24T01:11:14;7.90;;;4.20;;
56991;SDS011;42885;49.754;18.636;2023-04-24T01:14:05;6.60;;;4.45;;
56991;SDS011;42885;49.754;18.636;2023-04-24T01:16:56;10.85;;;4.30;;
56991;SDS011;42885;49.754;18.636;2023-04-24T01:19:45;5.97;;;3.87;;
56991;SDS011;42885;49.754;18.636;2023-04-24T01:22:34;6.30;;;3.83;;
56991;SDS011;42885;49.754;18.636;2023-04-24T01:25:24;9.10;;;4.22;;
56991;SDS011;42885;49.754;18.636;2023-04-24T01:28:15;8.85;;;4.70;;
56991;SDS011;42885;49.754;18.636;2023-04-24T01:31:05;7.85;;;4.50;;
56991;SDS011;42885;49.754;18.636;2023-04-24T01:33:55;7.78;;;4.67;;
56991;SDS011;42885;49.754;18.636;2023-04-24T01:36:45;4.60;;;3.65;;
56991;SDS011;42885;49.754;18.636;2023-04-24T01:39:35;7.17;;;4.17;;
56991;SDS011;42885;49.754;18.636;2023-04-24T01:42:23;7.05;;;4.53;;
56991;SDS011;42885;49.754;18.636;2023-04-24T01:45:13;7.73;;;4.70;;
56991;SDS011;42885;49.754;18.636;2023-04-24T01:48:03;4.87;;;4.28;;
56991;SDS011;42885;49.754;18.636;2023-04-24T01:50:52;5.65;;;4.33;;
56991;SDS011;42885;49.754;18.636;2023-04-24T01:53:41;5.85;;;4.30;;
56991;SDS011;42885;49.754;18.636;2023-04-24T01:56:29;5.50;;;4.20;;
56991;SDS011;42885;49.754;18.636;2023-04-24T01:59:18;7.87;;;4.05;;
56991;SDS011;42885;49.754;18.636;2023-04-24T02:02:09;4.80;;;3.90;;
56991;SDS011;42885;49.754;18.636;2023-04-24T02:04:59;6.03;;;4.12;;
56991;SDS011;42885;49.754;18.636;2023-04-24T02:07:48;7.28;;;4.47;;
56991;SDS011;42885;49.754;18.636;2023-04-24T02:10:39;6.42;;;4.10;;
56991;SDS011;42885;49.754;18.636;2023-04-24T02:13:28;7.67;;;4.20;;
56991;SDS011;42885;49.754;18.636;2023-04-24T02:16:17;7.92;;;4.35;;
56991;SDS011;42885;49.754;18.636;2023-04-24T02:19:06;6.08;;;4.03;;
56991;SDS011;42885;49.754;18.636;2023-04-24T02:21:56;8.18;;;4.10;;
56991;SDS011;42885;49.754;18.636;2023-04-24T02:24:45;7.58;;;4.50;;
56991;SDS011;42885;49.754;18.636;2023-04-24T02:27:35;6.00;;;4.25;;
56991;SDS011;42885;49.754;18.636;2023-04-24T02:30:26;7.80;;;3.90;;
56991;SDS011;42885;49.754;18.636;2023-04-24T02:33:15;6.77;;;3.87;;
56991;SDS011;42885;49.754;18.636;2023-04-24T02:36:04;5.73;;;3.67;;
56991;SDS011;42885;49.754;18.636;2023-04-24T02:38:53;7.97;;;4.10;;
56991;SDS011;42885;49.754;18.636;2023-04-24T02:41:42;6.08;;;4.53;;
56991;SDS011;42885;49.754;18.636;2023-04-24T02:44:31;5.58;;;4.15;;
56991;SDS011;42885;49.754;18.636;2023-04-24T02:47:21;8.30;;;3.95;;
56991;SDS011;42885;49.754;18.636;2023-04-24T02:50:09;8.85;;;4.40;;
56991;SDS011;42885;49.754;18.636;2023-04-24T02:52:58;5.50;;;3.80;;
56991;SDS011;42885;49.754;18.636;2023-04-24T02:55:47;6.75;;;4.30;;
56991;SDS011;42885;49.754;18.636;2023-04-24T02:58:37;7.12;;;3.55;;
56991;SDS011;42885;49.754;18.636;2023-04-24T03:01:26;7.03;;;4.00;;
56991;SDS011;42885;49.754;18.636;2023-04-24T03:04:15;6.15;;;3.80;;
56991;SDS011;42885;49.754;18.636;2023-04-24T03:07:05;4.67;;;3.80;;
56991;SDS011;42885;49.754;18.636;2023-04-24T03:09:54;6.05;;;4.30;;
56991;SDS011;42885;49.754;18.636;2023-04-24T03:12:45;6.83;;;4.50;;
56991;SDS011;42885;49.754;18.636;2023-04-24T03:15:34;7.27;;;4.20;;
56991;SDS011;42885;49.754;18.636;2023-04-24T03:18:22;4.80;;;3.72;;
56991;SDS011;42885;49.754;18.636;2023-04-24T03:21:13;7.23;;;4.10;;
56991;SDS011;42885;49.754;18.636;2023-04-24T03:24:03;5.97;;;3.90;;
56991;SDS011;42885;49.754;18.636;2023-04-24T03:26:52;6.22;;;4.15;;
56991;SDS011;42885;49.754;18.636;2023-04-24T03:30:01;7.17;;;4.65;;
56991;SDS011;42885;49.754;18.636;2023-04-24T03:32:52;7.62;;;3.87;;
56991;SDS011;42885;49.754;18.636;2023-04-24T03:35:42;9.10;;;4.70;;
56991;SDS011;42885;49.754;18.636;2023-04-24T03:38:31;6.20;;;4.30;;
56991;SDS011;42885;49.754;18.636;2023-04-24T03:41:22;10.05;;;3.92;;
56991;SDS011;42885;49.754;18.636;2023-04-24T03:44:12;7.00;;;4.03;;
56991;SDS011;42885;49.754;18.636;2023-04-24T03:47:02;7.25;;;3.80;;
56991;SDS011;42885;49.754;18.636;2023-04-24T03:49:52;17.17;;;4.30;;
56991;SDS011;42885;49.754;18.636;2023-04-24T03:52:42;7.53;;;4.15;;
56991;SDS011;42885;49.754;18.636;2023-04-24T03:55:33;6.77;;;4.00;;
56991;SDS011;42885;49.754;18.636;2023-04-24T03:58:22;7.15;;;4.05;;
56991;SDS011;42885;49.754;18.636;2023-04-24T04:01:11;7.03;;;3.95;;
56991;SDS011;42885;49.754;18.636;2023-04-24T04:04:02;7.83;;;3.77;;
56991;SDS011;42885;49.754;18.636;2023-04-24T04:06:50;7.70;;;3.98;;
56991;SDS011;42885;49.754;18.636;2023-04-24T04:09:40;7.25;;;4.33;;
56991;SDS011;42885;49.754;18.636;2023-04-24T04:12:30;4.40;;;3.60;;
56991;SDS011;42885;49.754;18.636;2023-04-24T04:15:19;7.20;;;4.08;;
56991;SDS011;42885;49.754;18.636;2023-04-24T04:18:10;5.77;;;3.77;;
56991;SDS011;42885;49.754;18.636;2023-04-24T04:20:59;6.15;;;4.25;;
56991;SDS011;42885;49.754;18.636;2023-04-24T04:23:48;5.50;;;3.70;;
56991;SDS011;42885;49.754;18.636;2023-04-24T04:26:39;6.92;;;4.17;;
56991;SDS011;42885;49.754;18.636;2023-04-24T04:29:30;7.55;;;3.80;;
56991;SDS011;42885;49.754;18.636;2023-04-24T04:32:20;6.03;;;3.75;;
56991;SDS011;42885;49.754;18.636;2023-04-24T04:35:09;6.37;;;3.70;;
56991;SDS011;42885;49.754;18.636;2023-04-24T04:37:59;9.53;;;3.77;;
56991;SDS011;42885;49.754;18.636;2023-04-24T04:40:58;7.35;;;3.90;;
56991;SDS011;42885;49.754;18.636;2023-04-24T04:43:48;8.48;;;3.98;;
56991;SDS011;42885;49.754;18.636;2023-04-24T04:46:38;4.42;;;3.90;;
56991;SDS011;42885;49.754;18.636;2023-04-24T04:49:29;9.73;;;3.95;;
56991;SDS011;42885;49.754;18.636;2023-04-24T04:52:20;6.50;;;4.25;;
56991;SDS011;42885;49.754;18.636;2023-04-24T04:55:12;5.58;;;4.42;;
56991;SDS011;42885;49.754;18.636;2023-04-24T04:58:03;24.73;;;16.70;;
56991;SDS011;42885;49.754;18.636;2023-04-24T05:00:55;8.13;;;4.28;;
56991;SDS011;42885;49.754;18.636;2023-04-24T05:03:45;7.58;;;3.92;;
56991;SDS011;42885;49.754;18.636;2023-04-24T05:06:35;4.85;;;3.77;;
56991;SDS011;42885;49.754;18.636;2023-04-24T05:09:25;7.08;;;4.12;;
56991;SDS011;42885;49.754;18.636;2023-04-24T05:12:17;5.22;;;3.87;;
56991;SDS011;42885;49.754;18.636;2023-04-24T05:15:09;6.67;;;4.10;;
56991;SDS011;42885;49.754;18.636;2023-04-24T05:18:00;7.12;;;4.40;;
56991;SDS011;42885;49.754;18.636;2023-04-24T05:20:49;10.15;;;4.40;;
56991;SDS011;42885;49.754;18.636;2023-04-24T05:23:38;10.72;;;3.85;;
56991;SDS011;42885;49.754;18.636;2023-04-24T05:26:27;8.03;;;4.08;;
56991;SDS011;42885;49.754;18.636;2023-04-24T05:29:18;7.67;;;3.98;;
56991;SDS011;42885;49.754;18.636;2023-04-24T05:32:08;9.18;;;3.98;;
56991;SDS011;42885;49.754;18.636;2023-04-24T05:34:57;6.03;;;3.85;;
56991;SDS011;42885;49.754;18.636;2023-04-24T05:37:46;7.33;;;4.70;;
56991;SDS011;42885;49.754;18.636;2023-04-24T05:40:36;8.58;;;4.08;;
56991;SDS011;42885;49.754;18.636;2023-04-24T05:43:25;8.43;;;4.42;;
56991;SDS011;42885;49.754;18.636;2023-04-24T05:46:15;9.73;;;4.40;;
56991;SDS011;42885;49.754;18.636;2023-04-24T05:49:05;5.10;;;4.17;;
56991;SDS011;42885;49.754;18.636;2023-04-24T05:51:54;8.60;;;4.85;;
56991;SDS011;42885;49.754;18.636;2023-04-24T05:54:43;7.53;;;4.37;;
56991;SDS011;42885;49.754;18.636;2023-04-24T05:57:34;6.85;;;4.72;;
56991;SDS011;42885;49.754;18.636;2023-04-24T06:00:23;8.58;;;4.90;;
56991;SDS011;42885;49.754;18.636;2023-04-24T06:03:15;6.47;;;4.00;;
56991;SDS011;42885;49.754;18.636;2023-04-24T06:06:05;8.63;;;4.10;;
56991;SDS011;42885;49.754;18.636;2023-04-24T06:08:55;8.53;;;4.40;;
56991;SDS011;42885;49.754;18.636;2023-04-24T06:11:46;9.15;;;4.45;;
56991;SDS011;42885;49.754;18.636;2023-04-24T06:14:34;9.73;;;4.55;;
56991;SDS011;42885;49.754;18.636;2023-04-24T06:17:27;10.23;;;4.20;;
56991;SDS011;42885;49.754;18.636;2023-04-24T06:20:17;7.23;;;4.20;;
56991;SDS011;42885;49.754;18.636;2023-04-24T06:23:07;8.33;;;4.40;;
56991;SDS011;42885;49.754;18.636;2023-04-24T06:25:56;6.80;;;3.97;;
56991;SDS011;42885;49.754;18.636;2023-04-24T06:28:45;10.58;;;4.15;;
56991;SDS011;42885;49.754;18.636;2023-04-24T06:31:34;8.23;;;4.85;;
56991;SDS011;42885;49.754;18.636;2023-04-24T06:34:24;14.33;;;6.60;;
56991;SDS011;42885;49.754;18.636;2023-04-24T06:37:13;8.60;;;6.47;;
56991;SDS011;42885;49.754;18.636;2023-04-24T06:40:03;11.08;;;6.72;;
56991;SDS011;42885;49.754;18.636;2023-04-24T06:42:53;11.88;;;5.83;;
56991;SDS011;42885;49.754;18.636;2023-04-24T06:45:43;10.78;;;8.28;;
56991;SDS011;42885;49.754;18.636;2023-04-24T06:48:34;9.78;;;6.37;;
56991;SDS011;42885;49.754;18.636;2023-04-24T06:51:23;10.78;;;5.65;;
56991;SDS011;42885;49.754;18.636;2023-04-24T06:54:13;6.57;;;4.60;;
56991;SDS011;42885;49.754;18.636;2023-04-24T06:57:03;9.53;;;5.40;;
56991;SDS011;42885;49.754;18.636;2023-04-24T06:59:52;8.43;;;4.60;;
56991;SDS011;42885;49.754;18.636;2023-04-24T07:02:41;10.63;;;5.12;;
56991;SDS011;42885;49.754;18.636;2023-04-24T07:05:30;8.55;;;4.45;;
56991;SDS011;42885;49.754;18.636;2023-04-24T07:08:21;10.70;;;5.28;;
56991;SDS011;42885;49.754;18.636;2023-04-24T07:11:11;8.18;;;5.20;;
56991;SDS011;42885;49.754;18.636;2023-04-24T07:14:00;7.03;;;4.58;;
56991;SDS011;42885;49.754;18.636;2023-04-24T07:16:49;8.88;;;4.78;;
56991;SDS011;42885;49.754;18.636;2023-04-24T07:19:38;7.70;;;4.62;;
56991;SDS011;42885;49.754;18.636;2023-04-24T07:22:28;8.18;;;4.80;;
56991;SDS011;42885;49.754;18.636;2023-04-24T07:25:18;8.28;;;5.05;;
56991;SDS011;42885;49.754;18.636;2023-04-24T07:28:08;9.40;;;4.78;;
56991;SDS011;42885;49.754;18.636;2023-04-24T07:30:58;11.20;;;4.37;;
56991;SDS011;42885;49.754;18.636;2023-04-24T07:33:48;8.33;;;4.80;;
56991;SDS011;42885;49.754;18.636;2023-04-24T07:36:37;12.50;;;4.95;;
56991;SDS011;42885;49.754;18.636;2023-04-24T07:39:27;11.30;;;4.70;;
56991;SDS011;42885;49.754;18.636;2023-04-24T07:42:16;9.13;;;4.90;;
56991;SDS011;42885;49.754;18.636;2023-04-24T07:45:06;14.87;;;5.97;;
56991;SDS011;42885;49.754;18.636;2023-04-24T07:47:56;12.88;;;7.12;;
56991;SDS011;42885;49.754;18.636;2023-04-24T07:50:45;14.45;;;8.78;;
56991;SDS011;42885;49.754;18.636;2023-04-24T07:53:35;9.75;;;7.40;;
56991;SDS011;42885;49.754;18.636;2023-04-24T07:56:24;14.47;;;5.90;;
56991;SDS011;42885;49.754;18.636;2023-04-24T07:59:14;10.78;;;6.80;;
56991;SDS011;42885;49.754;18.636;2023-04-24T08:02:03;8.70;;;6.05;;
56991;SDS011;42885;49.754;18.636;2023-04-24T08:04:53;13.25;;;6.35;;
56991;SDS011;42885;49.754;18.636;2023-04-24T08:07:45;18.95;;;8.38;;
56991;SDS011;42885;49.754;18.636;2023-04-24T08:10:35;20.47;;;9.10;;
56991;SDS011;42885;49.754;18.636;2023-04-24T08:13:24;23.22;;;9.03;;
56991;SDS011;42885;49.754;18.636;2023-04-24T08:16:14;21.10;;;8.53;;
56991;SDS011;42885;49.754;18.636;2023-04-24T08:19:03;15.50;;;6.87;;
56991;SDS011;42885;49.754;18.636;2023-04-24T08:21:53;15.40;;;7.60;;
56991;SDS011;42885;49.754;18.636;2023-04-24T08:24:43;21.93;;;9.40;;
56991;SDS011;42885;49.754;18.636;2023-04-24T08:27:33;18.77;;;7.80;;
56991;SDS011;42885;49.754;18.636;2023-04-24T08:30:23;10.58;;;5.12;;
56991;SDS011;42885;49.754;18.636;2023-04-24T08:33:12;15.70;;;5.93;;
56991;SDS011;42885;49.754;18.636;2023-04-24T08:36:03;15.45;;;5.17;;
56991;SDS011;42885;49.754;18.636;2023-04-24T08:38:53;9.98;;;5.37;;
56991;SDS011;42885;49.754;18.636;2023-04-24T08:41:42;9.93;;;5.42;;
56991;SDS011;42885;49.754;18.636;2023-04-24T08:44:33;8.58;;;5.37;;
56991;SDS011;42885;49.754;18.636;2023-04-24T08:47:24;13.10;;;8.63;;
56991;SDS011;42885;49.754;18.636;2023-04-24T08:50:16;12.05;;;8.20;;
56991;SDS011;42885;49.754;18.636;2023-04-24T08:53:06;19.30;;;10.05;;
56991;SDS011;42885;49.754;18.636;2023-04-24T08:55:57;16.95;;;11.40;;
56991;SDS011;42885;49.754;18.636;2023-04-24T08:58:50;12.93;;;9.78;;
56991;SDS011;42885;49.754;18.636;2023-04-24T09:01:41;23.23;;;12.57;;
56991;SDS011;42885;49.754;18.636;2023-04-24T09:04:33;16.80;;;11.53;;
56991;SDS011;42885;49.754;18.636;2023-04-24T09:07:24;15.20;;;10.40;;
56991;SDS011;42885;49.754;18.636;2023-04-24T09:10:16;11.93;;;9.40;;
56991;SDS011;42885;49.754;18.636;2023-04-24T09:13:05;12.18;;;7.67;;
56991;SDS011;42885;49.754;18.636;2023-04-24T09:15:57;10.55;;;5.90;;
56991;SDS011;42885;49.754;18.636;2023-04-24T09:18:47;9.05;;;5.80;;
56991;SDS011;42885;49.754;18.636;2023-04-24T09:21:37;10.45;;;6.60;;
56991;SDS011;42885;49.754;18.636;2023-04-24T09:24:29;12.93;;;8.37;;
56991;SDS011;42885;49.754;18.636;2023-04-24T09:27:18;11.35;;;8.43;;
56991;SDS011;42885;49.754;18.636;2023-04-24T09:30:08;17.53;;;9.17;;
56991;SDS011;42885;49.754;18.636;2023-04-24T09:33:13;23.67;;;12.25;;
56991;SDS011;42885;49.754;18.636;2023-04-24T09:36:03;18.30;;;12.47;;
56991;SDS011;42885;49.754;18.636;2023-04-24T09:38:55;12.07;;;8.60;;
56991;SDS011;42885;49.754;18.636;2023-04-24T09:41:46;12.15;;;7.58;;
56991;SDS011;42885;49.754;18.636;2023-04-24T09:44:40;21.02;;;10.48;;
56991;SDS011;42885;49.754;18.636;2023-04-24T09:47:36;15.18;;;9.18;;
56991;SDS011;42885;49.754;18.636;2023-04-24T09:50:25;14.75;;;8.38;;
56991;SDS011;42885;49.754;18.636;2023-04-24T09:53:15;14.03;;;7.97;;
56991;SDS011;42885;49.754;18.636;2023-04-24T09:56:09;12.47;;;7.78;;
56991;SDS011;42885;49.754;18.636;2023-04-24T09:59:06;9.13;;;7.33;;
56991;SDS011;42885;49.754;18.636;2023-04-24T10:01:55;10.53;;;6.22;;
56991;SDS011;42885;49.754;18.636;2023-04-24T10:04:53;10.37;;;5.93;;
56991;SDS011;42885;49.754;18.636;2023-04-24T10:07:46;12.63;;;7.20;;
56991;SDS011;42885;49.754;18.636;2023-04-24T10:10:40;13.97;;;7.40;;
56991;SDS011;42885;49.754;18.636;2023-04-24T10:13:31;7.22;;;5.03;;
56991;SDS011;42885;49.754;18.636;2023-04-24T10:16:22;9.65;;;5.45;;
56991;SDS011;42885;49.754;18.636;2023-04-24T10:19:14;8.18;;;5.40;;
56991;SDS011;42885;49.754;18.636;2023-04-24T10:22:06;10.13;;;6.40;;
56991;SDS011;42885;49.754;18.636;2023-04-24T10:24:56;8.60;;;5.50;;
56991;SDS011;42885;49.754;18.636;2023-04-24T10:27:47;9.70;;;6.03;;
56991;SDS011;42885;49.754;18.636;2023-04-24T10:30:37;9.75;;;5.62;;
56991;SDS011;42885;49.754;18.636;2023-04-24T10:33:26;7.47;;;5.47;;
56991;SDS011;42885;49.754;18.636;2023-04-24T10:36:18;7.13;;;5.73;;
56991;SDS011;42885;49.754;18.636;2023-04-24T10:39:09;6.17;;;5.57;;
56991;SDS011;42885;49.754;18.636;2023-04-24T10:42:02;8.05;;;5.72;;
56991;SDS011;42885;49.754;18.636;2023-04-24T10:44:53;14.15;;;6.62;;
56991;SDS011;42885;49.754;18.636;2023-04-24T10:47:50;12.82;;;6.00;;
56991;SDS011;42885;49.754;18.636;2023-04-24T10:50:44;7.35;;;6.17;;
56991;SDS011;42885;49.754;18.636;2023-04-24T10:53:34;8.33;;;6.37;;
56991;SDS011;42885;49.754;18.636;2023-04-24T10:56:24;7.22;;;6.03;;
56991;SDS011;42885;49.754;18.636;2023-04-24T10:59:19;8.75;;;6.30;;
56991;SDS011;42885;49.754;18.636;2023-04-24T11:02:14;8.88;;;6.50;;
56991;SDS011;42885;49.754;18.636;2023-04-24T11:05:03;11.27;;;7.00;;
56991;SDS011;42885;49.754;18.636;2023-04-24T11:11:06;11.50;;;7.00;;
56991;SDS011;42885;49.754;18.636;2023-04-24T11:16:52;9.03;;;7.30;;
56991;SDS011;42885;49.754;18.636;2023-04-24T11:19:44;9.70;;;7.75;;
56991;SDS011;42885;49.754;18.636;2023-04-24T11:22:37;11.28;;;7.83;;
56991;SDS011;42885;49.754;18.636;2023-04-24T11:25:28;10.40;;;7.33;;
56991;SDS011;42885;49.754;18.636;2023-04-24T11:34:29;11.50;;;6.80;;
56991;SDS011;42885;49.754;18.636;2023-04-24T11:37:19;7.97;;;7.15;;
56991;SDS011;42885;49.754;18.636;2023-04-24T11:40:14;10.88;;;6.70;;
56991;SDS011;42885;49.754;18.636;2023-04-24T11:45:52;9.68;;;7.00;;
56991;SDS011;42885;49.754;18.636;2023-04-24T11:48:44;7.60;;;6.40;;
56991;SDS011;42885;49.754;18.636;2023-04-24T11:51:35;8.68;;;5.50;;
56991;SDS011;42885;49.754;18.636;2023-04-24T11:54:24;6.47;;;5.80;;
56991;SDS011;42885;49.754;18.636;2023-04-24T11:57:13;6.30;;;5.60;;
56991;SDS011;42885;49.754;18.636;2023-04-24T12:00:03;10.38;;;6.72;;
56991;SDS011;42885;49.754;18.636;2023-04-24T12:03:08;8.18;;;5.97;;
56991;SDS011;42885;49.754;18.636;2023-04-24T12:06:05;8.83;;;6.42;;
56991;SDS011;42885;49.754;18.636;2023-04-24T12:08:55;9.50;;;6.83;;
56991;SDS011;42885;49.754;18.636;2023-04-24T12:11:55;10.13;;;6.45;;
56991;SDS011;42885;49.754;18.636;2023-04-24T12:14:50;7.95;;;6.75;;
56991;SDS011;42885;49.754;18.636;2023-04-24T12:17:43;10.15;;;6.67;;
56991;SDS011;42885;49.754;18.636;2023-04-24T12:20:32;9.60;;;6.92;;
56991;SDS011;42885;49.754;18.636;2023-04-24T12:23:35;14.13;;;8.80;;
56991;SDS011;42885;49.754;18.636;2023-04-24T12:26:24;11.05;;;7.12;;
56991;SDS011;42885;49.754;18.636;2023-04-24T12:29:26;10.95;;;8.33;;
56991;SDS011;42885;49.754;18.636;2023-04-24T12:32:15;14.50;;;8.17;;
56991;SDS011;42885;49.754;18.636;2023-04-24T12:35:00;10.93;;;7.58;;
56991;SDS011;42885;49.754;18.636;2023-04-24T12:37:52;8.08;;;7.20;;
56991;SDS011;42885;49.754;18.636;2023-04-24T12:40:41;8.58;;;7.70;;
56991;SDS011;42885;49.754;18.636;2023-04-24T12:43:32;11.50;;;7.95;;
56991;SDS011;42885;49.754;18.636;2023-04-24T12:46:21;9.43;;;8.40;;
56991;SDS011;42885;49.754;18.636;2023-04-24T12:49:11;11.13;;;8.70;;
56991;SDS011;42885;49.754;18.636;2023-04-24T12:52:01;10.48;;;8.33;;
56991;SDS011;42885;49.754;18.636;2023-04-24T12:54:50;10.70;;;8.43;;
56991;SDS011;42885;49.754;18.636;2023-04-24T12:57:42;9.70;;;8.35;;
56991;SDS011;42885;49.754;18.636;2023-04-24T13:00:32;12.23;;;9.63;;
56991;SDS011;42885;49.754;18.636;2023-04-24T13:03:21;12.23;;;9.68;;
56991;SDS011;42885;49.754;18.636;2023-04-24T13:06:10;11.87;;;9.50;;
56991;SDS011;42885;49.754;18.636;2023-04-24T13:08:59;12.40;;;9.98;;
56991;SDS011;42885;49.754;18.636;2023-04-24T13:11:49;14.28;;;10.30;;
56991;SDS011;42885;49.754;18.636;2023-04-24T13:14:38;17.73;;;12.00;;
56991;SDS011;42885;49.754;18.636;2023-04-24T13:17:27;12.58;;;10.63;;
56991;SDS011;42885;49.754;18.636;2023-04-24T13:20:17;13.05;;;10.75;;
56991;SDS011;42885;49.754;18.636;2023-04-24T13:23:07;20.92;;;15.72;;
56991;SDS011;42885;49.754;18.636;2023-04-24T13:25:58;14.53;;;11.10;;
56991;SDS011;42885;49.754;18.636;2023-04-24T13:28:48;11.13;;;9.20;;
56991;SDS011;42885;49.754;18.636;2023-04-24T13:31:37;14.50;;;8.60;;
56991;SDS011;42885;49.754;18.636;2023-04-24T13:34:27;9.80;;;8.60;;
56991;SDS011;42885;49.754;18.636;2023-04-24T13:37:15;9.58;;;8.15;;
56991;SDS011;42885;49.754;18.636;2023-04-24T13:40:05;10.17;;;7.90;;
56991;SDS011;42885;49.754;18.636;2023-04-24T13:42:55;9.88;;;8.25;;
56991;SDS011;42885;49.754;18.636;2023-04-24T13:45:44;11.38;;;8.43;;
56991;SDS011;42885;49.754;18.636;2023-04-24T13:48:34;8.90;;;8.00;;
56991;SDS011;42885;49.754;18.636;2023-04-24T13:51:30;9.97;;;8.10;;
56991;SDS011;42885;49.754;18.636;2023-04-24T13:54:14;11.57;;;8.47;;
56991;SDS011;42885;49.754;18.636;2023-04-24T13:57:04;11.47;;;8.20;;
56991;SDS011;42885;49.754;18.636;2023-04-24T13:59:53;13.55;;;9.03;;
56991;SDS011;42885;49.754;18.636;2023-04-24T14:02:43;11.43;;;9.00;;
56991;SDS011;42885;49.754;18.636;2023-04-24T14:05:32;11.33;;;9.13;;
56991;SDS011;42885;49.754;18.636;2023-04-24T14:08:22;12.50;;;10.15;;
56991;SDS011;42885;49.754;18.636;2023-04-24T14:11:12;11.83;;;8.98;;
56991;SDS011;42885;49.754;18.636;2023-04-24T14:14:02;11.03;;;9.48;;
56991;SDS011;42885;49.754;18.636;2023-04-24T14:16:52;15.05;;;10.75;;
56991;SDS011;42885;49.754;18.636;2023-04-24T14:19:41;12.82;;;10.05;;
56991;SDS011;42885;49.754;18.636;2023-04-24T14:22:30;12.90;;;10.58;;
56991;SDS011;42885;49.754;18.636;2023-04-24T14:25:20;12.00;;;10.50;;
56991;SDS011;42885;49.754;18.636;2023-04-24T14:28:10;17.55;;;11.45;;
56991;SDS011;42885;49.754;18.636;2023-04-24T14:30:59;16.35;;;11.40;;
56991;SDS011;42885;49.754;18.636;2023-04-24T14:33:48;17.70;;;11.20;;
56991;SDS011;42885;49.754;18.636;2023-04-24T14:36:38;13.48;;;11.97;;
56991;SDS011;42885;49.754;18.636;2023-04-24T14:39:28;13.68;;;11.80;;
56991;SDS011;42885;49.754;18.636;2023-04-24T14:42:17;13.90;;;10.30;;
56991;SDS011;42885;49.754;18.636;2023-04-24T14:45:07;16.10;;;11.10;;
56991;SDS011;42885;49.754;18.636;2023-04-24T14:47:57;15.32;;;11.30;;
56991;SDS011;42885;49.754;18.636;2023-04-24T14:50:47;13.40;;;9.93;;
56991;SDS011;42885;49.754;18.636;2023-04-24T14:53:36;12.95;;;9.63;;
56991;SDS011;42885;49.754;18.636;2023-04-24T14:56:26;14.30;;;11.53;;
56991;SDS011;42885;49.754;18.636;2023-04-24T14:59:49;13.32;;;9.65;;
56991;SDS011;42885;49.754;18.636;2023-04-24T15:02:19;13.80;;;9.70;;
56991;SDS011;42885;49.754;18.636;2023-04-24T15:04:50;13.88;;;9.13;;
56991;SDS011;42885;49.754;18.636;2023-04-24T15:07:21;11.70;;;9.33;;
56991;SDS011;42885;49.754;18.636;2023-04-24T15:09:52;11.33;;;9.73;;
56991;SDS011;42885;49.754;18.636;2023-04-24T15:12:23;13.28;;;10.20;;
56991;SDS011;42885;49.754;18.636;2023-04-24T15:14:55;14.78;;;9.50;;
56991;SDS011;42885;49.754;18.636;2023-04-24T15:17:27;13.15;;;8.68;;
56991;SDS011;42885;49.754;18.636;2023-04-24T15:19:58;11.80;;;8.80;;
56991;SDS011;42885;49.754;18.636;2023-04-24T15:22:29;11.55;;;8.93;;
56991;SDS011;42885;49.754;18.636;2023-04-24T15:25:00;17.07;;;9.65;;
56991;SDS011;42885;49.754;18.636;2023-04-24T15:27:47;16.30;;;9.15;;
56991;SDS011;42885;49.754;18.636;2023-04-24T15:30:14;14.73;;;9.63;;
56991;SDS011;42885;49.754;18.636;2023-04-24T15:32:45;11.78;;;9.05;;
56991;SDS011;42885;49.754;18.636;2023-04-24T15:35:15;9.98;;;8.73;;
56991;SDS011;42885;49.754;18.636;2023-04-24T15:37:46;10.43;;;8.78;;
56991;SDS011;42885;49.754;18.636;2023-04-24T15:42:51;12.90;;;8.70;;
56991;SDS011;42885;49.754;18.636;2023-04-24T15:45:22;10.65;;;8.60;;
56991;SDS011;42885;49.754;18.636;2023-04-24T15:47:53;10.60;;;8.50;;
56991;SDS011;42885;49.754;18.636;2023-04-24T15:50:24;12.10;;;9.38;;
56991;SDS011;42885;49.754;18.636;2023-04-24T15:52:55;12.78;;;8.50;;
56991;SDS011;42885;49.754;18.636;2023-04-24T15:55:26;10.40;;;8.58;;
56991;SDS011;42885;49.754;18.636;2023-04-24T15:57:57;11.97;;;8.73;;
56991;SDS011;42885;49.754;18.636;2023-04-24T16:00:29;12.98;;;9.08;;
56991;SDS011;42885;49.754;18.636;2023-04-24T16:03:01;10.28;;;8.40;;
56991;SDS011;42885;49.754;18.636;2023-04-24T16:05:32;10.05;;;8.50;;
56991;SDS011;42885;49.754;18.636;2023-04-24T16:08:03;10.98;;;9.00;;
56991;SDS011;42885;49.754;18.636;2023-04-24T16:10:34;12.85;;;9.28;;
56991;SDS011;42885;49.754;18.636;2023-04-24T16:13:06;11.10;;;9.23;;
56991;SDS011;42885;49.754;18.636;2023-04-24T16:15:37;12.60;;;9.83;;
56991;SDS011;42885;49.754;18.636;2023-04-24T16:18:09;13.77;;;9.50;;
56991;SDS011;42885;49.754;18.636;2023-04-24T16:20:41;14.03;;;10.40;;
56991;SDS011;42885;49.754;18.636;2023-04-24T16:23:12;17.20;;;10.78;;
56991;SDS011;42885;49.754;18.636;2023-04-24T16:25:43;15.90;;;11.08;;
56991;SDS011;42885;49.754;18.636;2023-04-24T16:28:14;14.57;;;9.83;;
56991;SDS011;42885;49.754;18.636;2023-04-24T16:30:45;17.02;;;10.98;;
56991;SDS011;42885;49.754;18.636;2023-04-24T16:33:15;19.30;;;11.93;;
56991;SDS011;42885;49.754;18.636;2023-04-24T16:35:47;17.25;;;11.50;;
56991;SDS011;42885;49.754;18.636;2023-04-24T16:38:18;17.55;;;11.73;;
56991;SDS011;42885;49.754;18.636;2023-04-24T16:40:49;14.33;;;10.55;;
56991;SDS011;42885;49.754;18.636;2023-04-24T16:43:20;16.17;;;10.50;;
56991;SDS011;42885;49.754;18.636;2023-04-24T16:45:52;14.38;;;10.35;;